Time;durP1;ratioP1;P1;durP2;ratioP2;P2;SDS_P1;SDS_P2;PMS_P1;PMS_P2;Temp;Humidity;BMP_temperature;BMP_pressure;BME280_temperature;BME280_humidity;BME280_pressure;Samples;Min_cycle;Max_cycle;Signal;HPM_P1;HPM_P2
2023/06/09 00:02:23;;;;;;;7.13;4.88;;;17.40;77.90;;;;;;4998128;28;20050;-87
2023/06/09 00:04:50;;;;;;;7.93;5.10;;;17.40;77.90;;;;;;4998898;28;20488;-88
2023/06/09 00:07:17;;;;;;;6.60;4.78;;;17.30;78.00;;;;;;5005681;28;20042;-88
2023/06/09 00:09:46;;;;;;;6.60;5.28;;;17.20;78.20;;;;;;5006983;28;20055;-87
2023/06/09 00:12:13;;;;;;;7.32;4.88;;;17.20;78.20;;;;;;5002403;28;20141;-87
2023/06/09 00:14:41;;;;;;;6.65;5.03;;;17.20;78.10;;;;;;4995248;28;20101;-87
2023/06/09 00:17:08;;;;;;;6.82;4.95;;;17.20;78.20;;;;;;4994715;28;20583;-85
2023/06/09 00:19:35;;;;;;;7.20;5.03;;;17.10;78.10;;;;;;4997516;28;20195;-82
2023/06/09 00:22:02;;;;;;;8.05;4.80;;;17.10;78.00;;;;;;4997940;28;20046;-88
2023/06/09 00:24:30;;;;;;;6.28;4.80;;;17.10;78.00;;;;;;4998191;28;20116;-88
2023/06/09 00:26:58;;;;;;;8.55;5.20;;;17.00;78.20;;;;;;4997500;28;20050;-62
2023/06/09 00:29:25;;;;;;;7.07;5.20;;;16.90;78.40;;;;;;4997880;28;20092;-63
2023/06/09 00:31:52;;;;;;;7.07;5.20;;;16.90;78.30;;;;;;4999046;28;20062;-63
2023/06/09 00:34:19;;;;;;;7.55;5.22;;;16.90;78.30;;;;;;4999309;28;20069;-62
2023/06/09 00:36:46;;;;;;;6.95;5.18;;;16.90;78.40;;;;;;4998935;28;20046;-62
2023/06/09 00:39:13;;;;;;;6.68;5.03;;;16.90;78.40;;;;;;4980865;28;20038;-63
2023/06/09 00:41:41;;;;;;;7.40;5.05;;;16.80;78.50;;;;;;4996101;28;20101;-63
2023/06/09 00:44:12;;;;;;;6.50;4.72;;;16.80;78.50;;;;;;4988380;28;20046;-63
2023/06/09 00:46:40;;;;;;;7.72;5.57;;;16.70;78.60;;;;;;4995281;28;20128;-67
2023/06/09 00:49:08;;;;;;;8.55;5.30;;;16.60;78.70;;;;;;4997057;28;20077;-67
2023/06/09 00:51:38;;;;;;;6.38;4.90;;;16.60;78.60;;;;;;4996221;28;20058;-67
2023/06/09 00:54:05;;;;;;;6.45;4.78;;;16.60;78.80;;;;;;4974718;28;20489;-67
2023/06/09 00:56:33;;;;;;;7.43;5.38;;;16.60;78.80;;;;;;4997333;28;20049;-70
2023/06/09 00:59:00;;;;;;;6.88;5.10;;;16.60;78.90;;;;;;4993928;28;20048;-70
2023/06/09 01:01:32;;;;;;;7.75;5.55;;;16.60;79.20;;;;;;4994175;28;20070;-69
2023/06/09 01:03:59;;;;;;;6.40;4.97;;;16.60;79.20;;;;;;4979252;28;20060;-69
2023/06/09 01:06:38;;;;;;;6.85;5.18;;;16.50;79.60;;;;;;4975041;28;20153;-68
2023/06/09 01:09:12;;;;;;;7.30;5.75;;;16.50;79.70;;;;;;4994867;28;20060;-68
2023/06/09 01:11:50;;;;;;;7.90;5.75;;;16.50;79.40;;;;;;4993558;28;20077;-87
2023/06/09 01:14:22;;;;;;;8.27;6.25;;;16.50;79.60;;;;;;4997441;28;20532;-86
2023/06/09 01:16:57;;;;;;;9.80;6.55;;;16.60;79.40;;;;;;4997984;28;20621;-68
2023/06/09 01:19:31;;;;;;;8.65;6.28;;;16.60;79.30;;;;;;4991032;28;20169;-68
2023/06/09 01:22:02;;;;;;;9.00;6.95;;;16.60;79.50;;;;;;4997570;28;20046;-68
2023/06/09 01:24:45;;;;;;;8.32;7.10;;;16.60;79.40;;;;;;4977093;28;20054;-68
2023/06/09 01:27:15;;;;;;;7.40;6.00;;;16.60;79.30;;;;;;4996043;28;20053;-68
2023/06/09 01:29:43;;;;;;;8.20;6.15;;;16.60;79.60;;;;;;4996251;28;20054;-69
2023/06/09 01:32:11;;;;;;;10.63;6.22;;;16.50;79.80;;;;;;4994812;28;20053;-66
2023/06/09 01:34:39;;;;;;;8.98;6.18;;;16.50;79.70;;;;;;4997927;28;20140;-66
2023/06/09 01:37:06;;;;;;;7.43;6.00;;;16.50;79.70;;;;;;4995478;28;20058;-86
2023/06/09 01:39:33;;;;;;;8.30;5.60;;;16.50;79.60;;;;;;4981062;28;20065;-86
2023/06/09 01:42:00;;;;;;;7.82;5.63;;;16.40;79.50;;;;;;4980127;28;20042;-76
2023/06/09 01:44:29;;;;;;;6.78;5.60;;;16.40;79.40;;;;;;4970931;28;20050;-75
2023/06/09 01:46:56;;;;;;;8.55;5.53;;;16.40;79.40;;;;;;4991173;28;20068;-66
2023/06/09 01:49:28;;;;;;;6.85;5.25;;;16.30;79.70;;;;;;4993770;28;20052;-66
2023/06/09 01:52:01;;;;;;;6.13;4.80;;;16.20;79.70;;;;;;4995679;28;20086;-76
2023/06/09 01:54:35;;;;;;;8.77;5.30;;;16.20;79.60;;;;;;4978255;28;20057;-76
2023/06/09 01:57:07;;;;;;;6.55;5.53;;;16.20;79.50;;;;;;4996796;28;20082;-70
2023/06/09 01:59:43;;;;;;;9.38;5.55;;;16.20;79.60;;;;;;4972080;28;21351;-70
2023/06/09 02:02:12;;;;;;;7.57;5.15;;;16.20;79.70;;;;;;4994938;28;20409;-69
2023/06/09 02:04:41;;;;;;;6.18;4.93;;;16.20;79.80;;;;;;4994950;28;20050;-68
2023/06/09 02:07:09;;;;;;;7.03;5.22;;;16.10;79.80;;;;;;4988251;28;20042;-66
2023/06/09 02:09:36;;;;;;;6.45;5.32;;;16.10;79.80;;;;;;4988061;28;20058;-66
2023/06/09 02:12:04;;;;;;;7.50;5.72;;;16.20;79.70;;;;;;4996786;28;20054;-68
2023/06/09 02:14:34;;;;;;;7.18;5.20;;;16.20;79.70;;;;;;4977167;28;20076;-68
2023/06/09 02:17:03;;;;;;;;;;;16.10;79.60;;;;;;4994033;28;20076;-69
2023/06/09 02:19:35;;;;;;;7.03;5.25;;;16.10;79.70;;;;;;4995199;28;19929;-68
2023/06/09 02:22:03;;;;;;;6.38;5.13;;;16.00;79.60;;;;;;4994262;28;20049;-62
2023/06/09 02:24:30;;;;;;;6.40;4.93;;;16.00;79.50;;;;;;4996818;28;20050;-62
2023/06/09 02:26:58;;;;;;;6.55;5.07;;;16.00;79.40;;;;;;4980493;28;20131;-75
2023/06/09 02:29:25;;;;;;;6.43;5.00;;;15.90;79.60;;;;;;4976366;28;20049;-75
2023/06/09 02:31:53;;;;;;;7.22;5.40;;;15.90;79.60;;;;;;4979288;28;20054;-69
2023/06/09 02:34:22;;;;;;;6.40;4.60;;;15.90;79.70;;;;;;4996283;28;20482;-69
2023/06/09 02:36:52;;;;;;;6.80;5.40;;;15.90;79.60;;;;;;4998692;28;20054;-86
2023/06/09 02:39:20;;;;;;;7.18;5.72;;;15.90;79.80;;;;;;4999252;28;20042;-86
2023/06/09 02:41:47;;;;;;;8.02;5.43;;;15.70;79.90;;;;;;4997742;28;20101;-68
2023/06/09 02:44:15;;;;;;;7.25;5.57;;;15.70;80.10;;;;;;4999683;28;20048;-68
2023/06/09 02:46:44;;;;;;;10.32;6.28;;;15.70;80.20;;;;;;5000977;28;20074;-69
2023/06/09 02:49:11;;;;;;;8.75;6.32;;;15.70;80.10;;;;;;4982544;28;20123;-69
2023/06/09 02:51:39;;;;;;;8.55;6.32;;;15.70;80.20;;;;;;4998593;28;20042;-69
2023/06/09 02:54:09;;;;;;;7.78;5.97;;;15.80;79.90;;;;;;4982189;28;20042;-70
2023/06/09 02:56:36;;;;;;;9.20;6.38;;;15.70;80.00;;;;;;5000622;28;20065;-69
2023/06/09 02:59:03;;;;;;;8.23;6.72;;;15.70;80.10;;;;;;5000909;28;20061;-69
2023/06/09 03:01:34;;;;;;;8.18;6.75;;;15.60;80.30;;;;;;4973824;28;20061;-69
2023/06/09 03:04:05;;;;;;;8.65;7.05;;;15.60;80.30;;;;;;4999996;28;20049;-69
2023/06/09 03:06:33;;;;;;;8.65;6.88;;;15.60;80.20;;;;;;4991345;28;20081;-68
2023/06/09 03:09:03;;;;;;;8.23;6.40;;;15.60;80.20;;;;;;4992245;28;20053;-68
2023/06/09 03:11:31;;;;;;;7.75;6.38;;;15.60;80.20;;;;;;4976534;28;20055;-66
2023/06/09 03:13:58;;;;;;;7.65;5.57;;;15.60;80.00;;;;;;5000107;28;20133;-66
2023/06/09 03:16:27;;;;;;;7.40;5.05;;;15.50;80.10;;;;;;4978971;28;20133;-62
2023/06/09 03:18:54;;;;;;;6.60;5.30;;;15.50;80.30;;;;;;5000724;28;20054;-62
2023/06/09 03:21:24;;;;;;;6.68;5.18;;;15.50;80.30;;;;;;4982125;28;20797;-69
2023/06/09 03:23:52;;;;;;;7.70;5.95;;;15.50;80.60;;;;;;4974362;28;20061;-69
2023/06/09 03:26:21;;;;;;;9.10;5.90;;;15.50;80.90;;;;;;4978958;28;20136;-70
2023/06/09 03:28:47;;;;;;;8.05;5.60;;;15.50;80.90;;;;;;4990189;28;20045;-69
2023/06/09 03:31:17;;;;;;;8.13;5.97;;;15.60;80.80;;;;;;4975441;28;20050;-69
2023/06/09 03:33:46;;;;;;;7.68;5.82;;;15.50;81.00;;;;;;4990070;28;20074;-68
2023/06/09 03:36:13;;;;;;;7.75;6.28;;;15.50;81.10;;;;;;4968074;28;20064;-84
2023/06/09 03:38:40;;;;;;;8.23;6.28;;;15.50;80.90;;;;;;4973888;28;20050;-84
2023/06/09 03:41:07;;;;;;;8.43;6.60;;;15.50;80.90;;;;;;4996459;28;20038;-75
2023/06/09 03:43:35;;;;;;;8.32;6.35;;;15.50;81.00;;;;;;4997209;28;20049;-75
2023/06/09 03:46:03;;;;;;;8.55;6.38;;;15.50;81.30;;;;;;4982789;28;20054;-67
2023/06/09 03:48:31;;;;;;;7.47;6.20;;;15.40;81.40;;;;;;4983227;28;20148;-68
2023/06/09 03:50:58;;;;;;;8.10;6.30;;;15.50;81.30;;;;;;4980596;28;20201;-68
2023/06/09 03:53:25;;;;;;;8.43;6.43;;;15.50;81.20;;;;;;4981127;28;20145;-69
2023/06/09 03:55:52;;;;;;;10.05;7.18;;;15.60;81.10;;;;;;4991448;28;20155;-62
2023/06/09 03:58:20;;;;;;;8.55;6.70;;;15.60;81.10;;;;;;5000607;28;20050;-62
2023/06/09 04:00:49;;;;;;;9.32;6.35;;;15.60;81.10;;;;;;4981089;28;20042;-83
2023/06/09 04:03:18;;;;;;;10.32;6.63;;;15.60;81.10;;;;;;4984182;28;20045;-82
2023/06/09 04:05:45;;;;;;;8.45;6.20;;;15.60;81.20;;;;;;4983070;28;20047;-69
2023/06/09 04:08:12;;;;;;;8.63;6.30;;;15.60;81.30;;;;;;4999824;28;20144;-69
2023/06/09 04:10:39;;;;;;;8.30;6.05;;;15.70;81.40;;;;;;4975123;28;20046;-83
2023/06/09 04:13:06;;;;;;;7.35;6.22;;;15.80;81.10;;;;;;4999883;28;20120;-84
2023/06/09 04:15:33;;;;;;;8.27;6.13;;;15.80;81.20;;;;;;4984854;28;20038;-62
2023/06/09 04:18:03;;;;;;;8.45;6.97;;;15.80;81.50;;;;;;4974483;28;20060;-62
2023/06/09 04:20:34;;;;;;;7.70;6.00;;;15.80;81.60;;;;;;4982599;28;20049;-69
2023/06/09 04:23:02;;;;;;;7.97;6.00;;;15.90;81.60;;;;;;4973688;28;20050;-69
2023/06/09 04:25:34;;;;;;;8.45;6.32;;;15.90;81.40;;;;;;4990632;28;20057;-75
2023/06/09 04:28:11;;;;;;;7.65;6.30;;;16.00;81.20;;;;;;4998004;28;20524;-74
2023/06/09 04:30:38;;;;;;;8.98;6.32;;;16.10;80.60;;;;;;4974134;28;20105;-68
2023/06/09 04:33:09;;;;;;;;;;;16.10;80.50;;;;;;4978125;28;20398;-68
2023/06/09 04:35:40;;;;;;;7.65;6.20;;;16.10;81.00;;;;;;4977494;28;19929;-69
2023/06/09 04:38:08;;;;;;;9.65;6.93;;;16.10;80.70;;;;;;4974634;28;20050;-69
2023/06/09 04:40:37;;;;;;;8.32;6.65;;;16.10;80.70;;;;;;4981558;28;20085;-69
2023/06/09 04:43:07;;;;;;;;;;;16.10;80.90;;;;;;4996372;28;20555;-69
2023/06/09 04:45:34;;;;;;;7.10;5.90;;;16.10;80.90;;;;;;4990065;28;19921;-67
2023/06/09 04:48:14;;;;;;;8.17;6.63;;;16.10;80.90;;;;;;4988406;28;20081;-67
2023/06/09 04:50:44;;;;;;;8.27;6.38;;;16.10;81.10;;;;;;4980428;28;20137;-69
2023/06/09 04:53:11;;;;;;;9.55;6.57;;;16.10;81.30;;;;;;4976142;28;20050;-68
2023/06/09 04:55:43;;;;;;;8.63;6.88;;;16.10;81.30;;;;;;4975231;28;20097;-66
2023/06/09 04:58:11;;;;;;;7.65;6.18;;;16.20;81.00;;;;;;4978740;28;20057;-66
2023/06/09 05:00:39;;;;;;;7.35;6.00;;;16.20;80.80;;;;;;4999134;28;20069;-65
2023/06/09 05:03:06;;;;;;;9.32;7.15;;;16.30;80.70;;;;;;4980286;28;20050;-66
2023/06/09 05:05:34;;;;;;;8.27;6.70;;;16.30;80.70;;;;;;4996315;28;20049;-66
2023/06/09 05:08:04;;;;;;;7.43;5.90;;;16.30;80.90;;;;;;4979328;28;20073;-66
2023/06/09 05:10:32;;;;;;;;;;;16.30;80.90;;;;;;4997536;28;20038;-66
2023/06/09 05:12:59;;;;;;;7.38;6.03;;;16.30;81.20;;;;;;4998544;28;19944;-66
2023/06/09 05:15:26;;;;;;;7.68;6.78;;;16.40;81.20;;;;;;4989281;28;20058;-82
2023/06/09 05:17:53;;;;;;;8.38;6.05;;;16.40;81.00;;;;;;4991615;28;20060;-83
2023/06/09 05:20:21;;;;;;;8.32;6.15;;;16.40;80.80;;;;;;4999214;28;20104;-69
2023/06/09 05:22:50;;;;;;;7.35;6.28;;;16.40;81.00;;;;;;4980205;28;20062;-69
2023/06/09 05:25:18;;;;;;;7.63;6.60;;;16.50;81.10;;;;;;4980210;28;20107;-69
2023/06/09 05:27:45;;;;;;;8.35;6.43;;;16.50;80.70;;;;;;4980175;28;20055;-69
2023/06/09 05:30:14;;;;;;;7.07;5.78;;;16.60;80.70;;;;;;4977582;28;20072;-69
2023/06/09 05:32:41;;;;;;;6.95;5.90;;;16.60;80.90;;;;;;4980740;28;20494;-69
2023/06/09 05:35:08;;;;;;;8.65;6.43;;;16.60;80.80;;;;;;4979807;28;20046;-69
2023/06/09 05:37:53;;;;;;;6.38;5.68;;;16.60;80.30;;;;;;4976141;28;20538;-67
2023/06/09 05:40:25;;;;;;;7.78;6.22;;;16.60;80.40;;;;;;4993892;28;20030;-62
2023/06/09 05:42:52;;;;;;;8.68;6.65;;;16.60;80.60;;;;;;4995889;28;20108;-62
2023/06/09 05:45:19;;;;;;;6.95;5.78;;;16.60;80.50;;;;;;4996112;28;20522;-62
2023/06/09 05:47:46;;;;;;;6.82;5.80;;;16.60;80.80;;;;;;4997877;28;20099;-62
2023/06/09 05:50:13;;;;;;;7.38;6.18;;;16.70;80.10;;;;;;4997089;28;20073;-63
2023/06/09 05:52:40;;;;;;;8.77;6.07;;;16.70;80.20;;;;;;4996655;28;20481;-62
2023/06/09 05:55:09;;;;;;;8.98;5.90;;;16.70;80.80;;;;;;4997416;28;20108;-62
2023/06/09 05:57:36;;;;;;;7.60;6.05;;;16.70;80.90;;;;;;4997218;28;20108;-69
2023/06/09 06:00:07;;;;;;;7.78;6.07;;;16.80;80.50;;;;;;4996275;28;20406;-69
2023/06/09 06:02:39;;;;;;;8.63;6.57;;;16.80;80.70;;;;;;4995040;28;20069;-69
2023/06/09 06:05:07;;;;;;;7.78;5.80;;;16.80;80.50;;;;;;4997044;28;20552;-68
2023/06/09 06:07:37;;;;;;;9.50;5.90;;;16.90;79.90;;;;;;4997225;28;20137;-81
2023/06/09 06:10:04;;;;;;;7.85;6.05;;;16.90;80.90;;;;;;5000579;28;20046;-81
2023/06/09 06:12:32;;;;;;;8.70;6.32;;;16.90;80.70;;;;;;4997852;28;20074;-69
2023/06/09 06:14:59;;;;;;;7.32;5.72;;;16.90;80.70;;;;;;4996157;28;20057;-69
2023/06/09 06:17:26;;;;;;;9.38;6.63;;;17.00;80.00;;;;;;4997134;28;20533;-81
2023/06/09 06:19:56;;;;;;;8.43;6.25;;;17.00;80.00;;;;;;4999392;28;20074;-81
2023/06/09 06:22:23;;;;;;;7.97;6.07;;;17.10;80.80;;;;;;4997969;28;20084;-80
2023/06/09 06:24:50;;;;;;;7.00;5.90;;;17.20;80.40;;;;;;4999735;28;20413;-81
2023/06/09 06:27:17;;;;;;;7.68;5.35;;;17.40;80.20;;;;;;4999294;28;20054;-81
2023/06/09 06:29:45;;;;;;;9.05;6.05;;;17.40;79.90;;;;;;4992035;28;20056;-81
2023/06/09 06:32:12;;;;;;;6.55;5.60;;;17.60;79.90;;;;;;4991007;28;20053;-74
2023/06/09 06:34:39;;;;;;;9.20;6.03;;;17.60;79.60;;;;;;4995031;28;20057;-74
2023/06/09 06:37:06;;;;;;;7.68;6.22;;;17.80;79.50;;;;;;4997649;28;20054;-68
2023/06/09 06:39:33;;;;;;;7.63;5.93;;;17.90;79.10;;;;;;4994448;28;20505;-68
2023/06/09 06:41:59;;;;;;;7.05;5.90;;;18.00;78.90;;;;;;4997933;28;20095;-69
2023/06/09 06:44:34;;;;;;;7.40;5.80;;;18.20;78.40;;;;;;4977748;28;20410;-69
2023/06/09 06:47:02;;;;;;;6.95;5.47;;;18.40;77.80;;;;;;4992361;28;20051;-69
2023/06/09 06:49:29;;;;;;;6.97;5.43;;;18.50;77.40;;;;;;4994357;28;20498;-69
2023/06/09 06:51:55;;;;;;;7.30;6.15;;;18.60;77.40;;;;;;4995750;28;20049;-69
2023/06/09 06:54:22;;;;;;;9.05;6.10;;;18.70;77.10;;;;;;4996026;28;20083;-69
2023/06/09 06:56:49;;;;;;;8.98;6.25;;;18.90;76.60;;;;;;4996382;28;20486;-69
2023/06/09 06:59:17;;;;;;;6.28;5.55;;;19.00;76.60;;;;;;4996422;28;20634;-69
2023/06/09 07:01:45;;;;;;;7.97;6.00;;;19.20;76.10;;;;;;4996063;28;20056;-81
2023/06/09 07:04:14;;;;;;;8.38;5.97;;;19.30;75.90;;;;;;4994982;28;20061;-79
2023/06/09 07:06:41;;;;;;;6.72;5.55;;;19.30;75.90;;;;;;4998690;28;20057;-62
2023/06/09 07:09:08;;;;;;;6.85;5.40;;;19.40;75.60;;;;;;4996629;28;20046;-62
2023/06/09 07:11:35;;;;;;;7.40;5.97;;;19.30;75.80;;;;;;4996101;28;20038;-62
2023/06/09 07:14:02;;;;;;;6.93;5.47;;;19.10;76.40;;;;;;4995465;28;20108;-62
2023/06/09 07:16:29;;;;;;;7.50;6.07;;;19.30;76.20;;;;;;4996065;28;20049;-69
2023/06/09 07:18:56;;;;;;;8.00;6.15;;;19.30;76.00;;;;;;4996160;28;20055;-69
2023/06/09 07:21:24;;;;;;;7.85;5.80;;;19.30;75.80;;;;;;4994651;28;20231;-68
2023/06/09 07:23:51;;;;;;;6.72;6.03;;;19.40;76.00;;;;;;4996249;28;20053;-68
2023/06/09 07:26:18;;;;;;;6.93;5.57;;;19.40;75.60;;;;;;4995090;28;20498;-69
2023/06/09 07:28:45;;;;;;;6.85;5.78;;;19.50;75.60;;;;;;4998262;28;20060;-69
2023/06/09 07:31:13;;;;;;;7.38;5.85;;;19.50;75.50;;;;;;4999976;28;20042;-69
2023/06/09 07:33:40;;;;;;;8.40;6.05;;;19.60;75.20;;;;;;4994232;28;20053;-69
2023/06/09 07:36:10;;;;;;;7.15;5.70;;;19.60;75.00;;;;;;5001067;28;20077;-69
2023/06/09 07:38:38;;;;;;;7.32;5.72;;;19.70;75.00;;;;;;4998539;28;20160;-69
2023/06/09 07:41:06;;;;;;;7.43;6.03;;;19.70;75.10;;;;;;4993522;28;20105;-69
2023/06/09 07:43:33;;;;;;;6.55;5.78;;;19.80;74.90;;;;;;4997150;28;20058;-69
2023/06/09 07:45:59;;;;;;;6.80;5.78;;;19.90;74.80;;;;;;5000212;28;20168;-69
2023/06/09 07:48:27;;;;;;;6.85;5.60;;;19.90;74.80;;;;;;4997734;28;20051;-69
2023/06/09 07:50:54;;;;;;;6.57;5.82;;;20.00;74.60;;;;;;4997266;28;20062;-69
2023/06/09 07:53:21;;;;;;;6.68;5.75;;;20.10;74.50;;;;;;4999123;28;20046;-69
2023/06/09 07:55:50;;;;;;;7.82;5.53;;;20.10;74.50;;;;;;4981056;28;20058;-69
2023/06/09 07:58:17;;;;;;;7.63;5.47;;;20.10;74.40;;;;;;4996927;28;20097;-69
2023/06/09 08:00:44;;;;;;;7.90;5.82;;;20.20;74.20;;;;;;4995440;28;20116;-66
2023/06/09 08:03:11;;;;;;;8.85;6.20;;;20.20;74.20;;;;;;4998884;28;20041;-67
2023/06/09 08:05:37;;;;;;;6.70;5.53;;;20.30;74.00;;;;;;4999959;28;20523;-66
2023/06/09 08:08:05;;;;;;;7.55;5.60;;;20.50;73.70;;;;;;4998480;28;20053;-66
2023/06/09 08:10:32;;;;;;;8.13;5.80;;;20.60;73.00;;;;;;5000182;28;20069;-82
2023/06/09 08:13:00;;;;;;;7.55;5.35;;;20.80;72.60;;;;;;5000351;28;20057;-81
2023/06/09 08:15:27;;;;;;;6.68;5.90;;;21.10;72.40;;;;;;4998903;28;20054;-69
2023/06/09 08:17:55;;;;;;;8.68;5.93;;;21.20;72.00;;;;;;4997467;28;20069;-69
2023/06/09 08:20:22;;;;;;;7.68;5.88;;;21.20;71.20;;;;;;4999490;28;20057;-65
2023/06/09 08:22:48;;;;;;;7.47;5.72;;;21.30;71.20;;;;;;4999045;28;20062;-66
2023/06/09 08:25:16;;;;;;;9.68;5.60;;;21.40;71.30;;;;;;4979722;28;20046;-67
2023/06/09 08:27:43;;;;;;;7.88;6.05;;;21.60;71.10;;;;;;4998907;28;20062;-66
2023/06/09 08:30:11;;;;;;;7.82;5.70;;;21.80;70.70;;;;;;4997566;28;20101;-69
2023/06/09 08:32:40;;;;;;;7.93;5.80;;;22.00;70.60;;;;;;4998207;28;20062;-69
2023/06/09 08:35:07;;;;;;;7.28;5.80;;;22.20;69.70;;;;;;4997884;28;20050;-68
2023/06/09 08:37:35;;;;;;;7.43;5.93;;;22.50;68.20;;;;;;4998303;28;20046;-68
2023/06/09 08:40:04;;;;;;;7.15;6.10;;;22.70;68.20;;;;;;4996624;28;20359;-68
2023/06/09 08:42:32;;;;;;;;;;;22.80;67.70;;;;;;4998499;28;20085;-69
2023/06/09 08:45:01;;;;;;;8.23;5.80;;;22.90;67.40;;;;;;4997270;28;19926;-69
2023/06/09 08:47:30;;;;;;;8.18;6.00;;;22.90;67.30;;;;;;4997953;28;20146;-69
2023/06/09 08:49:59;;;;;;;8.45;5.57;;;22.90;66.40;;;;;;4997756;28;20061;-68
2023/06/09 08:52:26;;;;;;;7.28;6.00;;;22.80;66.40;;;;;;4998879;28;20046;-70
2023/06/09 08:54:54;;;;;;;7.90;6.13;;;22.90;65.90;;;;;;4997789;28;20053;-69
2023/06/09 08:57:21;;;;;;;8.57;5.57;;;23.00;65.30;;;;;;4997869;28;20125;-69
2023/06/09 08:59:50;;;;;;;7.97;5.90;;;23.20;64.80;;;;;;4997620;28;20062;-70
2023/06/09 09:02:17;;;;;;;7.47;6.30;;;23.20;64.80;;;;;;4996999;28;20133;-69
2023/06/09 09:04:46;;;;;;;8.63;5.90;;;23.40;63.60;;;;;;4998629;28;20050;-69
2023/06/09 09:07:14;;;;;;;7.18;5.35;;;23.50;63.30;;;;;;4997087;28;20046;-69
2023/06/09 09:09:41;;;;;;;7.78;5.97;;;23.50;63.40;;;;;;4999011;28;20385;-70
2023/06/09 09:12:12;;;;;;;8.10;5.75;;;23.50;63.70;;;;;;4998953;28;20096;-70
2023/06/09 09:14:41;;;;;;;9.07;5.93;;;23.50;63.60;;;;;;4995079;28;20054;-69
2023/06/09 09:17:12;;;;;;;8.73;6.05;;;23.60;63.10;;;;;;4998223;28;20054;-69
2023/06/09 09:19:43;;;;;;;7.50;5.57;;;23.70;62.90;;;;;;4993960;28;20161;-69
2023/06/09 09:22:12;;;;;;;10.07;6.80;;;24.00;62.30;;;;;;4998851;28;20049;-69
2023/06/09 09:24:42;;;;;;;16.98;11.23;;;24.10;62.30;;;;;;4996678;28;20078;-69
2023/06/09 09:27:16;;;;;;;25.75;14.13;;;24.20;62.50;;;;;;4994727;28;20505;-69
2023/06/09 09:29:43;;;;;;;23.70;14.00;;;24.30;62.30;;;;;;4996781;28;20544;-69
2023/06/09 09:32:10;;;;;;;15.30;11.70;;;24.60;61.90;;;;;;4987473;28;20080;-73
2023/06/09 09:34:44;;;;;;;18.38;12.07;;;24.70;61.70;;;;;;4984556;28;20050;-74
2023/06/09 09:37:16;;;;;;;13.75;10.77;;;24.80;61.60;;;;;;4994727;28;20065;-73
2023/06/09 09:39:50;;;;;;;16.45;11.00;;;24.90;61.50;;;;;;4997055;28;20055;-72
2023/06/09 09:42:21;;;;;;;14.68;10.48;;;24.90;61.40;;;;;;4993392;28;20050;-73
2023/06/09 09:44:51;;;;;;;12.23;9.50;;;25.00;60.70;;;;;;4985863;28;20054;-73
2023/06/09 09:47:24;;;;;;;21.83;16.50;;;25.00;61.00;;;;;;4993524;28;20045;-74
2023/06/09 09:49:52;;;;;;;17.92;14.13;;;25.00;60.80;;;;;;4996852;28;20062;-73
2023/06/09 09:52:28;;;;;;;15.93;13.57;;;25.10;60.60;;;;;;4995989;28;20248;-73
2023/06/09 09:55:04;;;;;;;14.60;11.77;;;25.10;60.20;;;;;;4995879;28;20493;-73
2023/06/09 09:57:33;;;;;;;14.18;12.20;;;25.10;59.70;;;;;;4996465;28;20058;-74
2023/06/09 10:00:01;;;;;;;;;;;25.10;59.80;;;;;;4975779;28;20441;-72
2023/06/09 10:02:30;;;;;;;12.05;10.02;;;25.10;59.80;;;;;;4995318;28;20076;-75
2023/06/09 10:05:03;;;;;;;11.20;8.18;;;25.20;59.70;;;;;;4996435;28;20058;-75
2023/06/09 10:07:37;;;;;;;8.10;7.05;;;25.20;59.30;;;;;;4995125;28;20058;-73
2023/06/09 10:10:05;;;;;;;9.55;6.50;;;25.30;58.00;;;;;;4995427;28;20074;-75
2023/06/09 10:12:32;;;;;;;9.68;7.57;;;25.50;57.40;;;;;;4996823;28;20046;-76
2023/06/09 10:14:59;;;;;;;11.68;8.70;;;25.50;57.60;;;;;;4996563;28;20073;-74
2023/06/09 10:17:27;;;;;;;12.68;10.65;;;25.60;57.80;;;;;;4979771;28;20042;-75
2023/06/09 10:19:54;;;;;;;13.88;12.23;;;25.70;57.50;;;;;;4996823;28;20053;-75
2023/06/09 10:22:21;;;;;;;14.30;11.90;;;25.90;57.40;;;;;;4995320;28;20145;-75
2023/06/09 10:24:51;;;;;;;12.63;10.15;;;26.10;56.60;;;;;;4971361;28;20057;-75
2023/06/09 10:27:18;;;;;;;10.15;8.65;;;26.20;55.00;;;;;;4992213;28;20046;-75
2023/06/09 10:29:46;;;;;;;13.95;11.60;;;26.40;55.10;;;;;;4993972;28;20064;-74
2023/06/09 10:32:14;;;;;;;28.30;23.20;;;26.40;55.20;;;;;;4996577;28;20081;-74
2023/06/09 10:34:48;;;;;;;23.23;20.57;;;26.50;55.30;;;;;;4997198;28;20066;-75
2023/06/09 10:37:27;;;;;;;21.65;17.92;;;26.40;53.50;;;;;;4990876;28;20473;-75
2023/06/09 10:40:04;;;;;;;16.48;14.48;;;26.60;52.50;;;;;;4996205;28;20096;-75
2023/06/09 10:42:44;;;;;;;17.35;15.50;;;26.60;52.10;;;;;;4995834;28;20406;-75
2023/06/09 10:45:14;;;;;;;22.95;20.60;;;26.70;52.30;;;;;;4991124;28;20050;-74
2023/06/09 10:47:45;;;;;;;20.10;17.95;;;26.80;52.90;;;;;;4995793;28;20661;-75
2023/06/09 10:50:26;;;;;;;19.55;17.48;;;26.90;52.50;;;;;;4996165;28;20061;-74
2023/06/09 10:52:54;;;;;;;19.20;16.92;;;27.00;51.40;;;;;;4991131;28;20055;-75
2023/06/09 10:55:24;;;;;;;18.85;16.95;;;27.00;49.70;;;;;;4997510;28;20046;-75
2023/06/09 10:57:52;;;;;;;18.27;16.38;;;27.20;50.10;;;;;;4996636;28;20505;-75
2023/06/09 11:00:19;;;;;;;16.35;14.10;;;27.20;50.80;;;;;;4996132;28;20054;-75
2023/06/09 11:02:48;;;;;;;12.52;10.68;;;27.30;50.10;;;;;;4996125;28;20054;-75
2023/06/09 11:05:16;;;;;;;11.10;9.15;;;27.50;48.30;;;;;;5000691;28;20050;-76
2023/06/09 11:07:49;;;;;;;10.70;8.57;;;27.60;48.00;;;;;;4999019;28;20054;-75
2023/06/09 11:10:38;;;;;;;10.82;7.53;;;27.70;48.90;;;;;;5000103;28;20053;-75
2023/06/09 11:13:35;;;;;;;7.90;6.47;;;27.80;48.20;;;;;;5000080;28;20056;-75
2023/06/09 11:16:02;;;;;;;9.40;6.45;;;27.90;45.90;;;;;;4999009;28;20053;-75
2023/06/09 11:18:30;;;;;;;8.18;6.63;;;28.10;46.90;;;;;;4998718;28;20054;-75
2023/06/09 11:21:16;;;;;;;8.15;6.68;;;28.10;47.70;;;;;;5000327;28;20097;-75
2023/06/09 11:24:03;;;;;;;9.48;7.28;;;28.20;47.10;;;;;;4999118;28;20084;-75
2023/06/09 11:26:33;;;;;;;7.97;6.45;;;28.30;45.90;;;;;;4998186;28;20058;-75
2023/06/09 11:29:03;;;;;;;7.38;6.22;;;28.30;45.80;;;;;;4983443;28;20092;-76
2023/06/09 11:31:48;;;;;;;8.85;6.57;;;28.20;44.90;;;;;;4997784;28;20043;-74
2023/06/09 11:35:04;;;;;;;6.82;5.85;;;28.20;46.30;;;;;;4999376;28;20054;-75
2023/06/09 11:37:33;;;;;;;8.57;6.45;;;28.10;44.90;;;;;;4998497;28;20053;-74
2023/06/09 11:40:00;;;;;;;;;;;28.20;46.30;;;;;;4999178;28;20129;-74
2023/06/09 11:42:31;;;;;;;7.78;5.72;;;28.20;45.80;;;;;;4999172;28;19921;-74
2023/06/09 11:45:03;;;;;;;7.15;5.82;;;28.40;44.30;;;;;;5000708;28;20042;-75
2023/06/09 11:47:31;;;;;;;7.95;6.57;;;28.40;42.40;;;;;;5000375;28;20054;-75
2023/06/09 11:50:04;;;;;;;7.70;6.75;;;28.50;40.90;;;;;;4999134;28;20042;-76
2023/06/09 11:52:31;;;;;;;10.00;7.10;;;28.50;42.80;;;;;;4999522;28;20124;-75
2023/06/09 11:55:01;;;;;;;7.78;6.30;;;28.50;41.30;;;;;;4999644;28;20053;-75
2023/06/09 11:57:31;;;;;;;8.82;7.03;;;28.60;41.90;;;;;;4999258;28;20132;-75
2023/06/09 11:59:58;;;;;;;8.95;6.25;;;28.70;42.20;;;;;;4998115;28;20049;-76
2023/06/09 12:02:26;;;;;;;7.53;5.75;;;28.60;43.20;;;;;;4997370;28;20050;-76
2023/06/09 12:04:53;;;;;;;9.65;8.15;;;28.60;42.30;;;;;;4998254;28;20140;-76
2023/06/09 12:07:20;;;;;;;8.43;7.18;;;28.70;41.90;;;;;;4997932;28;20413;-76
2023/06/09 12:09:56;;;;;;;9.40;7.85;;;28.70;43.60;;;;;;4998384;28;20052;-77
2023/06/09 12:12:23;;;;;;;9.30;7.60;;;28.70;42.70;;;;;;4998199;28;20050;-76
2023/06/09 12:14:51;;;;;;;8.85;6.53;;;28.70;43.40;;;;;;4996521;28;20131;-76
2023/06/09 12:17:18;;;;;;;9.57;7.88;;;28.60;42.00;;;;;;4996072;28;21077;-77
2023/06/09 12:19:48;;;;;;;8.70;7.80;;;28.80;41.30;;;;;;4998455;28;20069;-77
2023/06/09 12:22:15;;;;;;;9.90;7.40;;;28.70;43.60;;;;;;4998142;28;20120;-77
2023/06/09 12:24:41;;;;;;;9.98;6.80;;;28.60;41.90;;;;;;4998590;28;20596;-76
2023/06/09 12:27:12;;;;;;;7.85;5.65;;;28.60;41.30;;;;;;4998576;28;20053;-76
2023/06/09 12:29:39;;;;;;;9.85;5.70;;;28.80;40.30;;;;;;4998854;28;20056;-75
2023/06/09 12:32:10;;;;;;;6.63;5.55;;;28.90;41.00;;;;;;4999122;28;20048;-74
2023/06/09 12:34:37;;;;;;;6.32;5.00;;;28.80;40.50;;;;;;4994785;28;20101;-76
2023/06/09 12:37:06;;;;;;;5.85;4.68;;;28.70;38.30;;;;;;4998770;28;20426;-76
2023/06/09 12:39:34;;;;;;;7.07;4.70;;;28.60;38.40;;;;;;4997675;28;20046;-76
2023/06/09 12:42:11;;;;;;;8.70;4.85;;;28.60;40.10;;;;;;4997697;28;20049;-74
2023/06/09 12:44:38;;;;;;;7.15;5.30;;;28.40;38.90;;;;;;4998977;28;20062;-76
2023/06/09 12:47:15;;;;;;;6.53;5.15;;;28.40;40.50;;;;;;4996621;28;20061;-76
2023/06/09 12:49:46;;;;;;;9.02;7.38;;;28.50;39.90;;;;;;4996280;28;20061;-76
2023/06/09 12:52:13;;;;;;;10.18;8.73;;;28.50;42.00;;;;;;4997369;28;20076;-76
2023/06/09 12:54:42;;;;;;;9.68;7.72;;;28.50;41.30;;;;;;4999097;28;20433;-76
2023/06/09 12:57:08;;;;;;;8.55;7.07;;;28.70;40.90;;;;;;4998720;28;20050;-76